createdAt,value
2023-06-30T00:00:41.084Z,100089.47
2023-06-30T00:02:43.493Z,100091.41
2023-06-30T00:04:47.002Z,100092.94
2023-06-30T00:06:48.844Z,100085.84
2023-06-30T00:08:51.339Z,100085.06
2023-06-30T00:10:53.092Z,100079.16
2023-06-30T00:12:54.731Z,100073.16
2023-06-30T00:14:56.704Z,100068.41
2023-06-30T00:16:58.513Z,100060.91
2023-06-30T00:19:00.417Z,100061.25
2023-06-30T00:21:04.575Z,100056.88
2023-06-30T00:23:06.394Z,100054.53
2023-06-30T00:25:08.961Z,100053.38
2023-06-30T00:27:10.708Z,100048.28
2023-06-30T00:29:12.562Z,100050.22
2023-06-30T00:31:14.348Z,100049.06
2023-06-30T00:33:16.089Z,100040.03
2023-06-30T00:35:18.021Z,100040.44
2023-06-30T00:37:21.102Z,100025.88
2023-06-30T00:39:22.984Z,100041.63
2023-06-30T00:41:25.299Z,100038.47
2023-06-30T00:43:27.134Z,100036.09
2023-06-30T00:45:28.871Z,100030.09
2023-06-30T00:47:31.118Z,100029.22
2023-06-30T00:49:34.314Z,100024.06
2023-06-30T00:51:36.041Z,100024.94
2023-06-30T00:53:39.516Z,100031.63
2023-06-30T00:55:41.853Z,100037.16
2023-06-30T00:57:43.979Z,100026.97
2023-06-30T00:59:45.739Z,100032.06
2023-06-30T01:03:56.929Z,100036.41
2023-06-30T01:06:02.034Z,100040.31
2023-06-30T01:08:09.832Z,100032.81
2023-06-30T01:10:16.319Z,100034.75
2023-06-30T01:12:18.380Z,100036.31
2023-06-30T01:14:22.630Z,100034.00
2023-06-30T01:16:25.653Z,100032.91
2023-06-30T01:18:28.701Z,100032.53
2023-06-30T01:20:32.220Z,100034.94
2023-06-30T01:22:39.609Z,100035.28
2023-06-30T01:24:43.145Z,100026.25
2023-06-30T01:26:46.412Z,100022.72
2023-06-30T01:28:49.205Z,100023.53
2023-06-30T01:30:51.070Z,100023.97
2023-06-30T01:32:53.042Z,100019.22
2023-06-30T01:34:54.730Z,100018.88
2023-06-30T01:36:56.408Z,100022.06
2023-06-30T01:38:58.049Z,100013.34
2023-06-30T01:41:01.039Z,100016.47
2023-06-30T01:43:05.062Z,100017.59
2023-06-30T01:45:08.548Z,100020.34
2023-06-30T01:47:11.118Z,100024.66
2023-06-30T01:49:14.259Z,100013.28
2023-06-30T01:51:17.320Z,100018.41
2023-06-30T01:53:19.105Z,100023.91
2023-06-30T01:55:20.817Z,100013.69
2023-06-30T01:57:22.478Z,100016.47
2023-06-30T01:59:28.654Z,100015.34
2023-06-30T02:01:30.413Z,100015.75
2023-06-30T02:03:32.194Z,100006.25
2023-06-30T02:05:34.181Z,100011.34
2023-06-30T02:07:36.226Z,100006.19
2023-06-30T02:09:47.267Z,100009.34
2023-06-30T02:11:50.422Z,100012.06
2023-06-30T02:13:52.505Z,100012.41
2023-06-30T02:15:55.591Z,100011.53
2023-06-30T02:17:57.239Z,100011.94
2023-06-30T02:19:59.089Z,100015.47
2023-06-30T02:22:00.916Z,100018.22
2023-06-30T02:24:02.752Z,100017.88
2023-06-30T02:26:15.184Z,100009.25
2023-06-30T02:28:17.169Z,100019.94
2023-06-30T02:30:18.945Z,100016.44
2023-06-30T02:32:24.606Z,100014.06
2023-06-30T02:34:26.372Z,100015.22
2023-06-30T02:36:28.060Z,100013.22
2023-06-30T02:38:29.788Z,100010.47
2023-06-30T02:40:31.412Z,100006.56
2023-06-30T02:42:33.119Z,100008.13
2023-06-30T02:44:34.863Z,100007.72
2023-06-30T02:46:36.649Z,100003.81
2023-06-30T02:48:39.964Z,100005.44
2023-06-30T02:50:42.126Z,100010.47
2023-06-30T02:52:43.819Z,100010.47
2023-06-30T02:54:45.468Z,100006.16
2023-06-30T02:56:47.193Z,100004.13
2023-06-30T02:58:51.602Z,100009.59
2023-06-30T03:00:55.569Z,100012.03
2023-06-30T03:02:57.443Z,100008.91
2023-06-30T03:05:01.645Z,100008.91
2023-06-30T03:07:03.692Z,100002.19
2023-06-30T03:09:07.958Z,100011.66
2023-06-30T03:11:09.750Z,100012.84
2023-06-30T03:13:11.636Z,100017.19
2023-06-30T03:15:17.990Z,100022.25
2023-06-30T03:17:19.703Z,100029.78
2023-06-30T03:19:21.347Z,100022.78
2023-06-30T03:21:24.448Z,100020.50
2023-06-30T03:23:26.214Z,100014.56
2023-06-30T03:25:27.934Z,100011.81
2023-06-30T03:27:29.692Z,100007.41
2023-06-30T03:29:31.545Z,100012.47
2023-06-30T03:31:33.335Z,100012.34
2023-06-30T03:33:35.304Z,100009.50
2023-06-30T03:35:37.023Z,100003.28
2023-06-30T03:37:40.100Z,100002.94
2023-06-30T03:39:41.719Z,100011.56
2023-06-30T03:41:43.356Z,100018.28
2023-06-30T03:43:45.027Z,100023.00
2023-06-30T03:45:47.080Z,100032.06
2023-06-30T03:47:49.014Z,100030.47
2023-06-30T03:49:50.764Z,100032.44
2023-06-30T03:51:52.457Z,100041.13
2023-06-30T03:53:55.452Z,100046.69
2023-06-30T03:55:59.393Z,100056.53
2023-06-30T03:58:02.891Z,100056.53
2023-06-30T04:00:05.401Z,100066.75
2023-06-30T04:02:07.165Z,100069.94
2023-06-30T04:04:09.105Z,100078.28
2023-06-30T04:06:11.344Z,100077.91
2023-06-30T04:08:13.111Z,100070.81
2023-06-30T04:10:16.315Z,100068.41
2023-06-30T04:12:18.338Z,100069.16
2023-06-30T04:14:20.343Z,100055.00
2023-06-30T04:16:22.374Z,100059.72
2023-06-30T04:18:24.103Z,100055.75
2023-06-30T04:20:26.211Z,100059.63
2023-06-30T04:22:27.946Z,100046.50
2023-06-30T04:24:29.600Z,100045.66
2023-06-30T04:26:34.443Z,100050.66
2023-06-30T04:28:36.203Z,100050.53
2023-06-30T04:30:41.372Z,100041.91
2023-06-30T04:32:43.578Z,100038.16
2023-06-30T04:34:45.320Z,100035.44
2023-06-30T04:36:46.956Z,100043.06
2023-06-30T04:38:48.684Z,100033.91
2023-06-30T04:41:08.886Z,100026.19
2023-06-30T04:43:11.990Z,100017.56
2023-06-30T04:45:14.822Z,100023.03
2023-06-30T04:47:17.881Z,100022.59
2023-06-30T04:49:21.079Z,100024.16
2023-06-30T04:51:31.261Z,100020.25
2023-06-30T04:53:33.012Z,100011.59
2023-06-30T04:55:34.748Z,100011.72
2023-06-30T04:57:36.386Z,100016.59
2023-06-30T04:59:39.921Z,100014.50
2023-06-30T05:01:41.625Z,100020.91
2023-06-30T05:03:43.396Z,100020.84
2023-06-30T05:05:45.663Z,100030.34
2023-06-30T05:07:47.534Z,100025.38
2023-06-30T05:09:49.280Z,100031.69
2023-06-30T05:11:51.427Z,100027.84
2023-06-30T05:13:53.090Z,100017.59
2023-06-30T05:15:56.198Z,100018.22
2023-06-30T05:17:58.076Z,100025.97
2023-06-30T05:19:59.842Z,100017.78
2023-06-30T05:22:01.756Z,100011.81
2023-06-30T05:24:03.807Z,100020.34
2023-06-30T05:26:06.073Z,100016.50
2023-06-30T05:28:07.757Z,100013.84
2023-06-30T05:30:10.355Z,100012.19
2023-06-30T05:32:13.363Z,100011.94
2023-06-30T05:34:14.938Z,100015.97
2023-06-30T05:36:16.578Z,100023.53
2023-06-30T05:38:18.236Z,100021.25
2023-06-30T05:40:19.953Z,100027.06
2023-06-30T05:42:21.702Z,100029.81
2023-06-30T05:44:26.212Z,100036.91
2023-06-30T05:46:27.975Z,100038.13
2023-06-30T05:48:31.131Z,100040.97
2023-06-30T05:50:33.288Z,100037.47
2023-06-30T05:52:35.039Z,100039.47
2023-06-30T05:54:36.801Z,100045.00
2023-06-30T05:56:38.655Z,100050.63
2023-06-30T05:58:40.269Z,100048.34
2023-06-30T06:00:41.938Z,100044.06
2023-06-30T06:02:43.871Z,100057.06
2023-06-30T06:04:47.267Z,100056.69
2023-06-30T06:06:49.085Z,100060.25
2023-06-30T06:08:50.731Z,100053.63
2023-06-30T06:10:52.465Z,100069.00
2023-06-30T06:12:54.229Z,100072.16
2023-06-30T06:14:55.923Z,100071.75
2023-06-30T06:16:57.635Z,100076.88
2023-06-30T06:18:59.388Z,100079.28
2023-06-30T06:21:03.293Z,100088.78
2023-06-30T06:23:04.976Z,100080.91
2023-06-30T06:25:07.675Z,100082.50
2023-06-30T06:27:09.272Z,100084.91
2023-06-30T06:29:10.931Z,100095.16
2023-06-30T06:31:12.642Z,100093.59
2023-06-30T06:33:14.471Z,100086.09
2023-06-30T06:35:17.995Z,100081.75
2023-06-30T06:37:21.129Z,100080.16
2023-06-30T06:39:22.992Z,100088.47
2023-06-30T06:41:24.715Z,100082.53
2023-06-30T06:43:26.401Z,100089.66
2023-06-30T06:45:28.114Z,100085.69
2023-06-30T06:48:06.757Z,100086.50
2023-06-30T06:50:09.102Z,100092.41
2023-06-30T06:52:11.060Z,100101.88
2023-06-30T06:54:16.812Z,100101.09
2023-06-30T06:56:18.681Z,100104.25
2023-06-30T06:58:21.352Z,100096.31
2023-06-30T07:00:23.381Z,100097.53
2023-06-30T07:02:25.070Z,100095.94
2023-06-30T07:04:26.733Z,100097.53
2023-06-30T07:06:28.382Z,100096.75
2023-06-30T07:08:30.099Z,100097.16
2023-06-30T07:10:33.444Z,100101.09
2023-06-30T07:12:35.044Z,100097.16
2023-06-30T07:14:37.167Z,100107.41
2023-06-30T07:16:38.846Z,100105.03
2023-06-30T07:18:40.608Z,100110.97
2023-06-30T07:20:42.310Z,100105.44
2023-06-30T07:22:43.951Z,100108.19
2023-06-30T07:24:45.744Z,100110.16
2023-06-30T07:26:48.729Z,100108.59
2023-06-30T07:28:50.327Z,100113.31
2023-06-30T07:30:52.266Z,100114.91
2023-06-30T07:33:00.715Z,100112.53
2023-06-30T07:35:03.928Z,100120.41
2023-06-30T07:37:06.456Z,100124.34
2023-06-30T07:39:09.396Z,100121.16
2023-06-30T07:41:11.504Z,100119.13
2023-06-30T07:43:14.691Z,100124.28
2023-06-30T07:45:17.848Z,100126.69
2023-06-30T07:47:19.594Z,100126.69
2023-06-30T07:49:21.392Z,100123.16
2023-06-30T07:51:23.381Z,100118.44
2023-06-30T07:53:25.432Z,100121.22
2023-06-30T07:55:27.421Z,100125.16
2023-06-30T07:57:30.769Z,100113.31
2023-06-30T07:59:34.024Z,100114.50
2023-06-30T08:01:35.890Z,100112.94
2023-06-30T08:03:37.820Z,100116.44
2023-06-30T08:05:39.904Z,100119.50
2023-06-30T08:07:48.004Z,100117.63
2023-06-30T08:09:51.666Z,100109.38
2023-06-30T08:11:53.395Z,100112.13
2023-06-30T08:13:55.040Z,100110.16
2023-06-30T08:15:59.334Z,100118.41
2023-06-30T08:18:01.258Z,100114.72
2023-06-30T08:20:12.440Z,100121.06
2023-06-30T08:22:14.652Z,100129.38
2023-06-30T08:24:16.454Z,100129.44
2023-06-30T08:26:18.247Z,100123.94
2023-06-30T08:28:19.967Z,100133.03
2023-06-30T08:30:24.660Z,100138.16
2023-06-30T08:32:28.492Z,100130.66
2023-06-30T08:34:30.167Z,100138.94
2023-06-30T08:36:31.914Z,100136.59
2023-06-30T08:38:34.036Z,100143.28
2023-06-30T08:40:36.212Z,100143.28
2023-06-30T08:42:41.498Z,100152.75
2023-06-30T08:44:45.703Z,100148.03
2023-06-30T08:46:48.164Z,100150.41
2023-06-30T08:48:51.737Z,100158.31
2023-06-30T08:50:54.396Z,100160.66
2023-06-30T08:52:56.315Z,100168.13
2023-06-30T08:54:58.123Z,100161.44
2023-06-30T08:57:01.886Z,100169.31
2023-06-30T08:59:03.757Z,100166.19
2023-06-30T09:01:06.143Z,100165.38
2023-06-30T09:03:08.183Z,100165.41
2023-06-30T09:05:12.207Z,100162.66
2023-06-30T09:07:22.868Z,100163.03
2023-06-30T09:09:28.001Z,100166.19
2023-06-30T09:11:31.592Z,100164.59
2023-06-30T09:13:35.343Z,100155.53
2023-06-30T09:15:38.877Z,100159.50
2023-06-30T09:17:46.658Z,100166.19
2023-06-30T09:19:48.732Z,100162.66
2023-06-30T09:21:52.567Z,100160.69
2023-06-30T09:23:54.468Z,100165.84
2023-06-30T09:25:56.321Z,100166.22
2023-06-30T09:27:58.397Z,100169.78
2023-06-30T09:30:00.049Z,100175.69
2023-06-30T09:32:02.036Z,100182.78
2023-06-30T09:34:11.675Z,100184.38
2023-06-30T09:36:17.395Z,100183.53
2023-06-30T09:38:20.581Z,100173.28
2023-06-30T09:40:25.774Z,100180.00
2023-06-30T09:42:27.470Z,100181.16
2023-06-30T09:44:38.809Z,100184.34
2023-06-30T09:46:46.620Z,100183.53
2023-06-30T09:48:48.497Z,100181.94
2023-06-30T09:50:52.855Z,100191.81
2023-06-30T09:52:54.739Z,100185.09
2023-06-30T09:54:57.827Z,100181.53
2023-06-30T09:57:00.211Z,100176.44
2023-06-30T09:59:01.854Z,100174.84
2023-06-30T10:01:03.636Z,100170.91
2023-06-30T10:03:06.624Z,100177.59
2023-06-30T10:05:08.956Z,100179.19
2023-06-30T10:07:14.281Z,100168.53
2023-06-30T10:09:18.391Z,100161.84
2023-06-30T10:11:23.409Z,100157.91
2023-06-30T10:13:26.960Z,100165.41
2023-06-30T10:15:31.563Z,100166.56
2023-06-30T10:17:33.549Z,100166.22
2023-06-30T10:19:36.890Z,100178.03
2023-06-30T10:21:38.791Z,100178.81
2023-06-30T10:23:43.404Z,100181.56
2023-06-30T10:25:45.844Z,100175.66
2023-06-30T10:27:49.489Z,100176.88
2023-06-30T10:29:51.828Z,100162.25
2023-06-30T10:33:57.422Z,100170.56
2023-06-30T10:36:01.103Z,100179.66
2023-06-30T10:38:03.014Z,100185.19
2023-06-30T10:40:07.697Z,100181.59
2023-06-30T10:42:12.203Z,100183.19
2023-06-30T10:44:15.833Z,100178.88
2023-06-30T10:46:19.375Z,100178.06
2023-06-30T10:48:21.085Z,100178.47
2023-06-30T10:50:23.234Z,100185.56
2023-06-30T10:52:29.412Z,100186.75
2023-06-30T10:54:38.425Z,100184.41
2023-06-30T10:56:40.239Z,100194.25
2023-06-30T10:58:42.237Z,100187.94
2023-06-30T11:01:02.848Z,100189.50
2023-06-30T11:03:06.384Z,100189.13
2023-06-30T11:05:22.264Z,100189.13
2023-06-30T11:07:25.455Z,100182.03
2023-06-30T11:09:27.842Z,100183.97
2023-06-30T11:11:29.574Z,100179.25
2023-06-30T11:13:41.552Z,100170.94
2023-06-30T11:15:53.437Z,100170.16
2023-06-30T11:18:01.890Z,100167.41
2023-06-30T11:20:11.986Z,100159.13
2023-06-30T11:22:24.488Z,100155.56
2023-06-30T11:24:27.993Z,100163.47
2023-06-30T11:26:36.862Z,100166.22
2023-06-30T11:28:40.266Z,100154.38
2023-06-30T11:30:42.181Z,100165.41
2023-06-30T11:32:43.936Z,100164.25
2023-06-30T11:34:47.767Z,100158.34
2023-06-30T11:36:59.161Z,100165.44
2023-06-30T11:39:01.708Z,100160.31
2023-06-30T11:41:03.336Z,100162.66
2023-06-30T11:43:05.156Z,100161.88
2023-06-30T11:45:08.030Z,100157.94
2023-06-30T11:47:10.014Z,100156.34
2023-06-30T11:49:11.873Z,100156.75
2023-06-30T11:51:15.035Z,100161.06
2023-06-30T11:53:16.920Z,100166.22
2023-06-30T11:55:18.941Z,100160.66
2023-06-30T11:57:20.828Z,100167.78
2023-06-30T11:59:22.566Z,100168.59
2023-06-30T12:01:24.418Z,100175.69
2023-06-30T12:03:26.369Z,100165.81
2023-06-30T12:05:28.968Z,100172.53
2023-06-30T12:07:32.160Z,100174.88
2023-06-30T12:09:34.908Z,100183.97
2023-06-30T12:11:36.781Z,100179.63
2023-06-30T12:13:39.280Z,100172.91
2023-06-30T12:15:41.615Z,100174.50
2023-06-30T12:17:43.534Z,100174.88
2023-06-30T12:19:46.006Z,100168.94
2023-06-30T12:21:57.669Z,100167.38
2023-06-30T12:24:01.023Z,100163.81
2023-06-30T12:26:03.005Z,100164.19
2023-06-30T12:28:05.249Z,100165.00
2023-06-30T12:30:15.128Z,100166.19
2023-06-30T12:32:17.594Z,100162.63
2023-06-30T12:34:31.670Z,100152.34
2023-06-30T12:36:33.500Z,100151.19
2023-06-30T12:38:35.711Z,100147.97
2023-06-30T12:40:39.026Z,100145.56
2023-06-30T12:42:46.331Z,100147.88
2023-06-30T12:44:49.434Z,100143.56
2023-06-30T12:46:59.910Z,100146.78
2023-06-30T12:49:01.963Z,100138.84
2023-06-30T12:51:04.105Z,100139.63
2023-06-30T12:53:05.884Z,100129.06
2023-06-30T12:55:08.487Z,100138.13
2023-06-30T12:57:11.621Z,100132.59
2023-06-30T12:59:13.343Z,100134.59
2023-06-30T13:01:15.190Z,100134.59
2023-06-30T13:03:17.183Z,100136.97
2023-06-30T13:05:19.352Z,100137.22
2023-06-30T13:07:22.509Z,100132.38
2023-06-30T13:09:24.335Z,100137.16
2023-06-30T13:11:25.998Z,100134.50
2023-06-30T13:13:29.357Z,100146.78
2023-06-30T13:15:31.103Z,100135.28
2023-06-30T13:17:36.070Z,100141.25
2023-06-30T13:19:37.856Z,100129.38
2023-06-30T13:21:39.745Z,100121.50
2023-06-30T13:23:42.803Z,100121.56
2023-06-30T13:25:45.095Z,100126.69
2023-06-30T13:27:47.092Z,100134.47
2023-06-30T13:29:52.218Z,100134.81
2023-06-30T13:31:54.636Z,100137.00
2023-06-30T13:33:56.548Z,100124.06
2023-06-30T13:35:58.227Z,100135.94
2023-06-30T13:38:01.654Z,100135.53
2023-06-30T13:40:03.692Z,100132.31
2023-06-30T13:42:06.529Z,100131.47
2023-06-30T13:44:10.615Z,100137.94
2023-06-30T13:46:13.763Z,100131.59
2023-06-30T13:48:15.499Z,100128.78
2023-06-30T13:50:17.185Z,100128.63
2023-06-30T13:52:19.095Z,100125.59
2023-06-30T13:54:23.113Z,100117.03
2023-06-30T13:56:25.506Z,100114.25
2023-06-30T13:58:27.236Z,100116.25
2023-06-30T14:00:30.531Z,100109.75
2023-06-30T14:02:34.389Z,100114.50
2023-06-30T14:04:36.187Z,100108.13
2023-06-30T14:06:38.306Z,100104.88
2023-06-30T14:08:39.969Z,100110.34
2023-06-30T14:10:41.649Z,100102.09
2023-06-30T14:12:43.328Z,100094.56
2023-06-30T14:14:47.682Z,100092.13
2023-06-30T14:16:50.269Z,100078.06
2023-06-30T14:18:53.438Z,100086.19
2023-06-30T14:20:55.153Z,100082.50
2023-06-30T14:22:57.195Z,100080.56
2023-06-30T14:24:58.816Z,100072.31
2023-06-30T14:27:00.700Z,100075.28
2023-06-30T14:29:02.430Z,100079.41
2023-06-30T14:31:04.253Z,100079.22
2023-06-30T14:33:06.063Z,100085.97
2023-06-30T14:35:09.513Z,100081.28
2023-06-30T14:37:14.263Z,100080.94
2023-06-30T14:39:16.092Z,100083.69
2023-06-30T14:41:17.850Z,100082.88
2023-06-30T14:43:19.912Z,100075.91
2023-06-30T14:45:21.867Z,100071.53
2023-06-30T14:47:23.590Z,100068.72
2023-06-30T14:49:25.285Z,100057.28
2023-06-30T14:51:28.476Z,100058.88
2023-06-30T14:53:30.799Z,100065.97
2023-06-30T14:55:32.474Z,100061.66
2023-06-30T14:57:34.509Z,100053.72
2023-06-30T14:59:54.264Z,100060.81
2023-06-30T15:01:56.023Z,100063.22
2023-06-30T15:03:58.122Z,100059.31
2023-06-30T15:06:02.238Z,100054.56
2023-06-30T15:08:06.126Z,100057.06
2023-06-30T15:10:09.304Z,100049.22
2023-06-30T15:12:11.165Z,100039.75
2023-06-30T15:14:12.964Z,100037.00
2023-06-30T15:16:14.933Z,100035.72
2023-06-30T15:18:16.794Z,100029.41
2023-06-30T15:20:18.529Z,100034.09
2023-06-30T15:22:20.285Z,100033.75
2023-06-30T15:24:23.469Z,100038.06
2023-06-30T15:26:25.283Z,100033.28
2023-06-30T15:28:27.017Z,100037.31
2023-06-30T15:30:28.760Z,100033.03
2023-06-30T15:32:30.578Z,100036.56
2023-06-30T15:34:32.470Z,100033.34
2023-06-30T15:36:34.228Z,100027.03
2023-06-30T15:38:35.935Z,100031.72
2023-06-30T15:40:41.275Z,100037.63
2023-06-30T15:42:43.757Z,100031.34
2023-06-30T15:44:45.526Z,100026.22
2023-06-30T15:46:47.229Z,100016.72
2023-06-30T15:48:49.094Z,100015.13
2023-06-30T15:50:51.169Z,100008.84
2023-06-30T15:52:52.843Z,100014.00
2023-06-30T15:55:07.543Z,100012.34
2023-06-30T15:57:10.714Z,100006.78
2023-06-30T15:59:12.397Z,99999.34
2023-06-30T16:01:16.673Z,100001.41
2023-06-30T16:03:18.791Z,99995.84
2023-06-30T16:05:20.743Z,100012.06
2023-06-30T16:07:22.828Z,100011.25
2023-06-30T16:09:24.652Z,100015.53
2023-06-30T16:11:26.432Z,100003.66
2023-06-30T16:13:29.415Z,100006.41
2023-06-30T16:15:31.046Z,100008.88
2023-06-30T16:17:32.946Z,100000.19
2023-06-30T16:19:34.612Z,100007.41
2023-06-30T16:21:36.393Z,100004.63
2023-06-30T16:23:38.364Z,100000.25
2023-06-30T16:25:40.068Z,99995.44
2023-06-30T16:27:41.937Z,99995.84
2023-06-30T16:29:45.141Z,99999.44
2023-06-30T16:31:46.917Z,99997.91
2023-06-30T16:33:49.012Z,99994.72
2023-06-30T16:35:51.133Z,99995.91
2023-06-30T16:37:53.131Z,99994.75
2023-06-30T16:39:54.907Z,99991.97
2023-06-30T16:41:56.828Z,99988.84
2023-06-30T16:43:58.483Z,99988.47
2023-06-30T16:46:01.490Z,99997.59
2023-06-30T16:48:03.784Z,99985.72
2023-06-30T16:50:07.479Z,99986.09
2023-06-30T16:52:09.273Z,99983.78
2023-06-30T16:54:13.189Z,99984.97
2023-06-30T16:56:14.997Z,99987.34
2023-06-30T16:58:16.761Z,99985.34
2023-06-30T17:00:19.548Z,99981.75
2023-06-30T17:02:24.086Z,99994.34
2023-06-30T17:04:25.834Z,99992.81
2023-06-30T17:06:27.547Z,99996.75
2023-06-30T17:08:29.302Z,99994.00
2023-06-30T17:10:31.069Z,99998.34
2023-06-30T17:12:32.971Z,99990.09
2023-06-30T17:14:34.943Z,99999.59
2023-06-30T17:16:37.042Z,100001.19
2023-06-30T17:18:42.661Z,99998.00
2023-06-30T17:20:44.461Z,99993.28
2023-06-30T17:22:47.256Z,99991.31
2023-06-30T17:24:49.338Z,100000.38
2023-06-30T17:26:51.053Z,99993.22
2023-06-30T17:28:55.924Z,100002.28
2023-06-30T17:30:58.095Z,99999.94
2023-06-30T17:33:00.008Z,100003.13
2023-06-30T17:35:04.003Z,100007.06
2023-06-30T17:37:08.029Z,100007.09
2023-06-30T17:39:09.983Z,100015.78
2023-06-30T17:41:11.988Z,100011.81
2023-06-30T17:43:13.722Z,100010.63
2023-06-30T17:45:15.463Z,100012.19
2023-06-30T17:47:17.295Z,100009.44
2023-06-30T17:49:22.438Z,100011.03
2023-06-30T17:51:25.584Z,100011.41
2023-06-30T17:53:27.481Z,100013.78
2023-06-30T17:55:29.414Z,100016.53
2023-06-30T17:57:31.156Z,100019.28
2023-06-30T17:59:33.060Z,100016.94
2023-06-30T18:01:34.899Z,100020.84
2023-06-30T18:03:36.778Z,100024.78
2023-06-30T18:05:40.737Z,100022.41
2023-06-30T18:07:43.887Z,100015.31
2023-06-30T18:09:46.037Z,100016.13
2023-06-30T18:11:47.833Z,100018.88
2023-06-30T18:13:49.585Z,100022.41
2023-06-30T18:15:51.258Z,100013.78
2023-06-30T18:17:53.237Z,100021.25
2023-06-30T18:19:55.448Z,100025.59
2023-06-30T18:21:57.224Z,100024.75
2023-06-30T18:24:00.215Z,100031.09
2023-06-30T18:26:03.992Z,100030.72
2023-06-30T18:28:05.849Z,100030.28
2023-06-30T18:30:09.056Z,100031.50
2023-06-30T18:32:10.872Z,100033.09
2023-06-30T18:34:12.629Z,100040.22
2023-06-30T18:36:14.576Z,100036.66
2023-06-30T18:38:16.380Z,100040.22
2023-06-30T18:40:19.558Z,100040.22
2023-06-30T18:42:21.194Z,100041.44
2023-06-30T18:44:22.920Z,100038.66
2023-06-30T18:46:26.029Z,100040.59
2023-06-30T18:48:27.836Z,100037.47
2023-06-30T18:50:29.792Z,100041.84
2023-06-30T18:52:31.496Z,100048.59
2023-06-30T18:54:33.192Z,100051.75
2023-06-30T18:56:36.697Z,100049.00
2023-06-30T18:58:38.335Z,100052.91
2023-06-30T19:00:39.999Z,100054.13
2023-06-30T19:02:44.011Z,100050.16
2023-06-30T19:04:45.766Z,100053.34
2023-06-30T19:06:47.636Z,100057.28
2023-06-30T19:08:50.646Z,100063.19
2023-06-30T19:10:52.292Z,100058.84
2023-06-30T19:12:55.669Z,100061.25
2023-06-30T19:14:57.450Z,100067.16
2023-06-30T19:16:59.312Z,100063.59
2023-06-30T19:19:01.042Z,100067.53
2023-06-30T19:21:02.942Z,100072.66
2023-06-30T19:23:04.854Z,100073.06
2023-06-30T19:25:07.281Z,100073.44
2023-06-30T19:27:09.005Z,100080.16
2023-06-30T19:29:12.305Z,100082.88
2023-06-30T19:31:14.090Z,100078.19
2023-06-30T19:33:15.865Z,100078.97
2023-06-30T19:35:17.565Z,100082.91
2023-06-30T19:37:19.321Z,100085.28
2023-06-30T19:39:21.187Z,100086.09
2023-06-30T19:41:22.894Z,100089.25
2023-06-30T19:43:24.626Z,100083.31
2023-06-30T19:45:27.932Z,100090.41
2023-06-30T19:47:30.054Z,100088.84
2023-06-30T19:49:31.886Z,100089.28
2023-06-30T19:51:34.206Z,100098.34
2023-06-30T19:53:36.127Z,100098.34
2023-06-30T19:55:37.964Z,100085.34
2023-06-30T19:57:40.078Z,100096.00
2023-06-30T19:59:41.899Z,100094.78
2023-06-30T20:01:45.109Z,100103.47
2023-06-30T20:03:47.471Z,100095.97
2023-06-30T20:05:49.766Z,100102.28
2023-06-30T20:07:54.442Z,100109.38
2023-06-30T20:09:56.424Z,100113.31
2023-06-30T20:11:58.153Z,100110.56
2023-06-30T20:14:00.021Z,100106.22
2023-06-30T20:16:02.189Z,100111.34
2023-06-30T20:18:05.580Z,100104.25
2023-06-30T20:20:08.814Z,100103.84
2023-06-30T20:22:10.751Z,100105.84
2023-06-30T20:24:12.594Z,100114.50
2023-06-30T20:26:14.312Z,100109.78
2023-06-30T20:28:16.523Z,100102.28
2023-06-30T20:30:18.398Z,100110.97
2023-06-30T20:32:20.226Z,100106.22
2023-06-30T20:34:23.879Z,100110.97
2023-06-30T20:36:25.684Z,100115.69
2023-06-30T20:38:27.331Z,100118.78
2023-06-30T20:40:29.311Z,100115.94
2023-06-30T20:42:33.102Z,100110.78
2023-06-30T20:44:35.085Z,100111.91
2023-06-30T20:46:36.934Z,100116.63
2023-06-30T20:48:38.653Z,100125.66
2023-06-30T20:50:41.814Z,100133.13
2023-06-30T20:52:43.526Z,100131.94
2023-06-30T20:54:45.299Z,100126.06
2023-06-30T20:56:47.119Z,100124.50
2023-06-30T20:58:48.841Z,100125.75
2023-06-30T21:00:50.517Z,100123.81
2023-06-30T21:02:54.664Z,100122.22
2023-06-30T21:04:56.709Z,100126.97
2023-06-30T21:07:00.008Z,100121.47
2023-06-30T21:09:01.989Z,100125.06
2023-06-30T21:11:04.175Z,100125.50
2023-06-30T21:13:06.009Z,100123.91
2023-06-30T21:15:08.593Z,100118.78
2023-06-30T21:17:11.181Z,100118.03
2023-06-30T21:19:12.931Z,100110.91
2023-06-30T21:21:14.648Z,100115.63
2023-06-30T21:23:17.736Z,100113.66
2023-06-30T21:25:19.502Z,100110.84
2023-06-30T21:27:21.210Z,100108.50
2023-06-30T21:29:23.072Z,100107.69
2023-06-30T21:31:25.116Z,100108.88
2023-06-30T21:33:26.963Z,100118.72
2023-06-30T21:35:28.679Z,100112.44
2023-06-30T21:37:30.380Z,100114.84
2023-06-30T21:39:33.404Z,100106.56
2023-06-30T21:41:36.614Z,100101.84
2023-06-30T21:43:38.303Z,100104.16
2023-06-30T21:45:39.870Z,100109.25
2023-06-30T21:47:41.661Z,100103.66
2023-06-30T21:49:43.306Z,100099.59
2023-06-30T21:51:44.903Z,100097.53
2023-06-30T21:53:46.681Z,100097.88
2023-06-30T21:55:49.905Z,100099.44
2023-06-30T21:57:51.557Z,100101.03
2023-06-30T21:59:53.332Z,100100.22
2023-06-30T22:01:55.084Z,100109.66
2023-06-30T22:03:56.922Z,100102.53
2023-06-30T22:05:58.846Z,100097.03
2023-06-30T22:08:00.525Z,100093.06
2023-06-30T22:10:02.196Z,100097.75
2023-06-30T22:12:06.437Z,100102.78
2023-06-30T22:14:08.444Z,100100.78
2023-06-30T22:16:10.156Z,100104.66
2023-06-30T22:18:14.104Z,100106.59
2023-06-30T22:20:15.772Z,100100.59
2023-06-30T22:22:17.387Z,100104.41
2023-06-30T22:24:19.146Z,100107.94
2023-06-30T22:26:20.844Z,100097.66
2023-06-30T22:28:23.909Z,100094.09
2023-06-30T22:30:27.474Z,100096.47
2023-06-30T22:32:29.149Z,100098.00
2023-06-30T22:34:30.842Z,100102.38
2023-06-30T22:36:32.553Z,100096.13
2023-06-30T22:38:34.233Z,100095.34
2023-06-30T22:40:35.962Z,100096.47
2023-06-30T22:42:37.616Z,100094.34
2023-06-30T22:44:40.660Z,100101.34
2023-06-30T22:46:42.302Z,100101.63
2023-06-30T22:48:44.601Z,100096.00
2023-06-30T22:50:46.640Z,100098.69
2023-06-30T22:52:48.551Z,100095.19
2023-06-30T22:54:50.473Z,100104.94
2023-06-30T22:56:52.185Z,100096.75
2023-06-30T22:58:55.030Z,100097.56
2023-06-30T23:00:58.199Z,100094.81
2023-06-30T23:03:00.049Z,100089.31
2023-06-30T23:05:02.047Z,100090.88
2023-06-30T23:07:04.530Z,100091.25
2023-06-30T23:09:06.273Z,100091.19
2023-06-30T23:11:07.898Z,100086.09
2023-06-30T23:13:09.615Z,100082.56
2023-06-30T23:15:11.664Z,100081.34
2023-06-30T23:17:14.845Z,100085.25
2023-06-30T23:19:16.637Z,100088.81
2023-06-30T23:21:18.319Z,100082.13
2023-06-30T23:23:19.993Z,100090.38
2023-06-30T23:25:24.830Z,100088.38
2023-06-30T23:27:26.555Z,100087.53